createdAt,value
2023-05-22T00:01:04.767Z,101241.03
2023-05-22T00:03:31.299Z,101251.75
2023-05-22T00:05:58.853Z,101244.00
2023-05-22T00:08:29.303Z,101251.38
2023-05-22T00:10:56.218Z,101238.91
2023-05-22T00:13:22.711Z,101241.19
2023-05-22T00:15:49.485Z,101246.34
2023-05-22T00:18:16.044Z,101243.94
2023-05-22T00:20:42.731Z,101235.31
2023-05-22T00:23:10.267Z,101237.56
2023-05-22T00:25:37.390Z,101237.28
2023-05-22T00:28:04.731Z,101239.94
2023-05-22T00:30:31.712Z,101242.81
2023-05-22T00:32:58.193Z,101235.34
2023-05-22T00:35:25.062Z,101243.47
2023-05-22T00:37:51.555Z,101237.06
2023-05-22T00:40:18.296Z,101230.69
2023-05-22T00:42:45.521Z,101236.22
2023-05-22T00:45:12.318Z,101236.91
2023-05-22T00:47:39.074Z,101232.94
2023-05-22T00:50:07.083Z,101234.34
2023-05-22T00:52:37.468Z,101234.25
2023-05-22T00:55:04.364Z,101229.91
2023-05-22T00:57:33.738Z,101239.34
2023-05-22T01:00:02.619Z,101243.91
2023-05-22T01:02:32.851Z,101237.34
2023-05-22T01:04:59.388Z,101241.72
2023-05-22T01:07:25.823Z,101236.59
2023-05-22T01:09:56.140Z,101228.50
2023-05-22T01:12:47.812Z,101236.25
2023-05-22T01:15:22.162Z,101239.31
2023-05-22T01:17:59.877Z,101236.00
2023-05-22T01:20:48.758Z,101243.63
2023-05-22T01:23:24.535Z,101232.78
2023-05-22T01:26:03.494Z,101233.00
2023-05-22T01:28:45.681Z,101230.34
2023-05-22T01:31:17.216Z,101241.22
2023-05-22T01:33:48.168Z,101237.13
2023-05-22T01:36:19.938Z,101240.66
2023-05-22T01:38:47.291Z,101241.66
2023-05-22T01:41:14.182Z,101236.41
2023-05-22T01:43:41.951Z,101241.44
2023-05-22T01:46:08.540Z,101233.41
2023-05-22T01:48:35.849Z,101237.13
2023-05-22T01:51:18.214Z,101227.69
2023-05-22T01:54:23.993Z,101223.59
2023-05-22T01:57:00.031Z,101223.03
2023-05-22T01:59:38.611Z,101228.44
2023-05-22T02:02:07.899Z,101225.78
2023-05-22T02:04:39.600Z,101232.34
2023-05-22T02:07:07.077Z,101226.16
2023-05-22T02:09:35.017Z,101217.69
2023-05-22T02:12:01.741Z,101222.84
2023-05-22T02:14:30.080Z,101232.53
2023-05-22T02:16:56.763Z,101219.03
2023-05-22T02:19:23.453Z,101225.84
2023-05-22T02:21:50.051Z,101218.53
2023-05-22T02:24:16.544Z,101218.22
2023-05-22T02:26:43.394Z,101208.53
2023-05-22T02:29:10.017Z,101191.00
2023-05-22T02:31:36.669Z,101206.53
2023-05-22T02:34:05.310Z,101200.09
2023-05-22T02:36:32.136Z,101199.78
2023-05-22T02:39:01.402Z,101203.53
2023-05-22T02:41:27.938Z,101187.13
2023-05-22T02:43:54.445Z,101197.41
2023-05-22T02:46:21.111Z,101192.25
2023-05-22T02:48:47.645Z,101189.22
2023-05-22T02:51:14.128Z,101192.63
2023-05-22T02:53:41.457Z,101188.88
2023-05-22T02:56:08.782Z,101184.72
2023-05-22T02:58:35.436Z,101188.81
2023-05-22T03:01:03.414Z,101182.88
2023-05-22T03:03:31.349Z,101183.72
2023-05-22T03:05:58.554Z,101187.22
2023-05-22T03:08:28.060Z,101187.28
2023-05-22T03:10:56.552Z,101176.31
2023-05-22T03:13:23.086Z,101180.19
2023-05-22T03:15:49.534Z,101179.75
2023-05-22T03:18:16.253Z,101178.75
2023-05-22T03:20:42.965Z,101185.69
2023-05-22T03:23:12.131Z,101181.22
2023-05-22T03:25:38.740Z,101183.06
2023-05-22T03:28:05.266Z,101193.00
2023-05-22T03:30:31.704Z,101182.31
2023-05-22T03:32:58.163Z,101187.69
2023-05-22T03:35:25.495Z,101188.16
2023-05-22T03:37:51.950Z,101180.63
2023-05-22T03:40:18.375Z,101182.34
2023-05-22T03:42:44.833Z,101191.44
2023-05-22T03:45:11.582Z,101188.38
2023-05-22T03:47:38.094Z,101194.91
2023-05-22T03:50:04.970Z,101182.06
2023-05-22T03:52:31.474Z,101179.13
2023-05-22T03:54:57.933Z,101177.28
2023-05-22T03:57:24.414Z,101183.84
2023-05-22T03:59:50.916Z,101175.38
2023-05-22T04:02:17.448Z,101184.72
2023-05-22T04:04:46.140Z,101181.03
2023-05-22T04:07:13.415Z,101184.75
2023-05-22T04:09:41.083Z,101179.97
2023-05-22T04:12:08.343Z,101192.66
2023-05-22T04:14:34.838Z,101194.56
2023-05-22T04:17:01.313Z,101194.63
2023-05-22T04:19:28.208Z,101188.91
2023-05-22T04:21:54.842Z,101185.31
2023-05-22T04:24:23.052Z,101180.41
2023-05-22T04:26:50.038Z,101189.03
2023-05-22T04:29:16.590Z,101182.81
2023-05-22T04:31:43.420Z,101182.13
2023-05-22T04:34:15.522Z,101188.78
2023-05-22T04:36:41.936Z,101181.41
2023-05-22T04:39:08.395Z,101185.38
2023-05-22T04:41:34.960Z,101185.34
2023-05-22T04:44:03.956Z,101185.28
2023-05-22T04:46:30.425Z,101184.34
2023-05-22T04:49:01.989Z,101189.22
2023-05-22T04:51:29.797Z,101182.63
2023-05-22T04:53:56.260Z,101182.75
2023-05-22T04:56:34.706Z,101183.50
2023-05-22T04:59:04.622Z,101181.97
2023-05-22T05:01:33.090Z,101185.41
2023-05-22T05:04:00.150Z,101195.28
2023-05-22T05:06:27.252Z,101185.44
2023-05-22T05:08:54.111Z,101184.13
2023-05-22T05:11:21.538Z,101179.66
2023-05-22T05:13:47.998Z,101179.81
2023-05-22T05:16:14.511Z,101179.66
2023-05-22T05:18:40.973Z,101181.88
2023-05-22T05:21:07.961Z,101181.00
2023-05-22T05:23:34.417Z,101181.47
2023-05-22T05:26:00.960Z,101189.06
2023-05-22T05:28:27.385Z,101182.44
2023-05-22T05:30:53.877Z,101193.59
2023-05-22T05:33:20.304Z,101196.34
2023-05-22T05:35:46.764Z,101198.06
2023-05-22T05:38:13.200Z,101197.53
2023-05-22T05:40:39.949Z,101184.38
2023-05-22T05:43:09.232Z,101200.03
2023-05-22T05:45:36.105Z,101200.50
2023-05-22T05:48:02.603Z,101197.69
2023-05-22T05:50:29.056Z,101191.69
2023-05-22T05:52:55.596Z,101197.47
2023-05-22T05:55:22.178Z,101202.34
2023-05-22T05:57:48.616Z,101198.81
2023-05-22T06:00:15.980Z,101201.81
2023-05-22T06:02:42.894Z,101192.94
2023-05-22T06:05:10.573Z,101198.16
2023-05-22T06:07:39.944Z,101195.81
2023-05-22T06:10:10.850Z,101199.75
2023-05-22T06:12:38.036Z,101198.66
2023-05-22T06:15:07.315Z,101199.47
2023-05-22T06:17:34.757Z,101195.88
2023-05-22T06:20:01.249Z,101199.38
2023-05-22T06:22:29.114Z,101202.16
2023-05-22T06:24:55.813Z,101193.00
2023-05-22T06:27:22.988Z,101196.19
2023-05-22T06:29:52.677Z,101192.97
2023-05-22T06:32:19.180Z,101202.72
2023-05-22T06:34:49.633Z,101206.34
2023-05-22T06:37:16.102Z,101204.88
2023-05-22T06:39:42.506Z,101212.00
2023-05-22T06:42:09.072Z,101206.44
2023-05-22T06:44:35.631Z,101198.81
2023-05-22T06:47:02.086Z,101217.69
2023-05-22T06:49:28.503Z,101214.94
2023-05-22T06:51:55.001Z,101219.34
2023-05-22T06:54:21.471Z,101219.44
2023-05-22T06:56:47.985Z,101222.25
2023-05-22T06:59:14.434Z,101224.75
2023-05-22T07:01:41.316Z,101228.34
2023-05-22T07:04:09.179Z,101230.38
2023-05-22T07:06:42.471Z,101226.81
2023-05-22T07:09:11.159Z,101224.44
2023-05-22T07:11:37.787Z,101218.09
2023-05-22T07:14:04.355Z,101225.25
2023-05-22T07:16:31.320Z,101228.41
2023-05-22T07:18:57.919Z,101230.78
2023-05-22T07:21:24.394Z,101230.72
2023-05-22T07:23:52.304Z,101223.19
2023-05-22T07:26:19.312Z,101212.50
2023-05-22T07:28:45.784Z,101231.50
2023-05-22T07:31:12.277Z,101229.47
2023-05-22T07:33:38.769Z,101215.56
2023-05-22T07:36:06.268Z,101227.03
2023-05-22T07:38:33.038Z,101226.56
2023-05-22T07:40:59.496Z,101224.63
2023-05-22T07:43:25.968Z,101218.22
2023-05-22T07:45:54.108Z,101230.03
2023-05-22T07:48:20.746Z,101227.25
2023-05-22T07:50:47.689Z,101223.63
2023-05-22T07:53:14.198Z,101229.47
2023-05-22T07:55:40.989Z,101226.69
2023-05-22T07:58:08.370Z,101222.25
2023-05-22T08:00:34.865Z,101226.59
2023-05-22T08:03:01.423Z,101230.53
2023-05-22T08:05:28.032Z,101220.59
2023-05-22T08:07:54.501Z,101222.97
2023-05-22T08:10:20.964Z,101224.84
2023-05-22T08:12:47.468Z,101229.13
2023-05-22T08:15:13.962Z,101236.19
2023-05-22T08:17:40.493Z,101237.38
2023-05-22T08:20:09.154Z,101233.00
2023-05-22T08:22:37.407Z,101228.19
2023-05-22T08:25:04.265Z,101237.56
2023-05-22T08:27:30.850Z,101234.31
2023-05-22T08:29:57.329Z,101225.97
2023-05-22T08:32:23.897Z,101228.31
2023-05-22T08:34:50.529Z,101221.59
2023-05-22T08:37:16.957Z,101217.56
2023-05-22T08:39:43.421Z,101209.19
2023-05-22T08:42:09.889Z,101219.44
2023-05-22T08:44:36.540Z,101207.91
2023-05-22T08:47:09.739Z,101222.28
2023-05-22T08:49:38.224Z,101214.56
2023-05-22T08:52:14.530Z,101207.88
2023-05-22T08:54:44.772Z,101211.38
2023-05-22T08:57:11.600Z,101214.91
2023-05-22T08:59:39.561Z,101201.03
2023-05-22T09:02:07.110Z,101201.38
2023-05-22T09:04:33.652Z,101202.91
2023-05-22T09:07:05.600Z,101193.78
2023-05-22T09:09:36.626Z,101198.44
2023-05-22T09:12:04.294Z,101199.94
2023-05-22T09:14:38.394Z,101197.97
2023-05-22T09:17:05.314Z,101196.25
2023-05-22T09:19:31.871Z,101191.78
2023-05-22T09:22:07.454Z,101178.41
2023-05-22T09:24:46.012Z,101193.00
2023-05-22T09:27:12.523Z,101183.81
2023-05-22T09:29:56.708Z,101189.22
2023-05-22T09:32:23.946Z,101194.75
2023-05-22T09:34:51.109Z,101189.91
2023-05-22T09:37:18.073Z,101195.28
2023-05-22T09:39:46.278Z,101192.44
2023-05-22T09:42:16.956Z,101198.78
2023-05-22T09:44:48.379Z,101186.03
2023-05-22T09:47:15.626Z,101174.38
2023-05-22T09:49:43.796Z,101183.25
2023-05-22T09:52:12.497Z,101169.50
2023-05-22T09:54:50.325Z,101177.91
2023-05-22T09:57:19.543Z,101173.16
2023-05-22T09:59:54.426Z,101166.38
2023-05-22T10:02:26.297Z,101166.66
2023-05-22T10:04:53.473Z,101161.97
2023-05-22T10:07:25.186Z,101169.16
2023-05-22T10:09:54.264Z,101154.41
2023-05-22T10:12:23.459Z,101156.44
2023-05-22T10:14:50.120Z,101156.28
2023-05-22T10:17:17.245Z,101163.03
2023-05-22T10:19:44.741Z,101155.59
2023-05-22T10:22:20.684Z,101160.22
2023-05-22T10:24:48.611Z,101155.81
2023-05-22T10:27:15.136Z,101146.66
2023-05-22T10:29:50.671Z,101133.91
2023-05-22T10:32:38.329Z,101141.13
2023-05-22T10:35:21.810Z,101140.00
2023-05-22T10:38:04.182Z,101149.03
2023-05-22T10:40:33.826Z,101140.78
2023-05-22T10:43:01.581Z,101127.97
2023-05-22T10:45:29.171Z,101125.09
2023-05-22T10:48:04.202Z,101127.53
2023-05-22T10:50:31.087Z,101121.13
2023-05-22T10:53:26.419Z,101118.72
2023-05-22T10:55:57.926Z,101112.75
2023-05-22T10:58:29.385Z,101117.91
2023-05-22T11:01:18.342Z,101113.38
2023-05-22T11:03:50.793Z,101120.59
2023-05-22T11:06:35.810Z,101103.16
2023-05-22T11:09:45.892Z,101108.63
2023-05-22T11:12:32.588Z,101103.81
2023-05-22T11:14:59.860Z,101109.38
2023-05-22T11:17:28.936Z,101096.41
2023-05-22T11:20:27.166Z,101101.41
2023-05-22T11:23:01.364Z,101097.81
2023-05-22T11:25:29.046Z,101089.00
2023-05-22T11:27:56.040Z,101089.78
2023-05-22T11:30:26.655Z,101094.59
2023-05-22T11:32:56.303Z,101082.81
2023-05-22T11:35:23.065Z,101073.75
2023-05-22T11:37:51.227Z,101076.34
2023-05-22T11:40:22.194Z,101072.38
2023-05-22T11:42:48.731Z,101081.47
2023-05-22T11:45:15.546Z,101061.94
2023-05-22T11:47:43.930Z,101064.47
2023-05-22T11:50:11.712Z,101065.22
2023-05-22T11:52:40.071Z,101071.34
2023-05-22T11:55:07.921Z,101064.03
2023-05-22T11:57:35.115Z,101070.81
2023-05-22T12:00:03.188Z,101075.13
2023-05-22T12:02:30.309Z,101079.19
2023-05-22T12:04:58.083Z,101079.59
2023-05-22T12:07:26.498Z,101105.28
2023-05-22T12:09:55.787Z,101078.16
2023-05-22T12:12:22.850Z,101071.50
2023-05-22T12:14:49.575Z,101077.22
2023-05-22T12:17:17.906Z,101074.72
2023-05-22T12:19:45.088Z,101062.13
2023-05-22T12:22:12.055Z,101069.13
2023-05-22T12:24:42.595Z,101062.66
2023-05-22T12:27:12.799Z,101060.19
2023-05-22T12:29:39.888Z,101060.66
2023-05-22T12:32:11.594Z,101059.00
2023-05-22T12:34:47.941Z,101055.28
2023-05-22T12:37:22.718Z,101046.59
2023-05-22T12:39:59.516Z,101048.97
2023-05-22T12:42:27.161Z,101041.00
2023-05-22T12:44:55.346Z,101036.88
2023-05-22T12:47:23.146Z,101025.78
2023-05-22T12:49:49.700Z,101028.66
2023-05-22T12:52:16.250Z,101025.94
2023-05-22T12:54:43.166Z,101025.44
2023-05-22T12:57:09.804Z,101036.13
2023-05-22T12:59:37.169Z,101023.38
2023-05-22T13:02:06.972Z,101013.50
2023-05-22T13:04:33.755Z,101038.78
2023-05-22T13:07:00.444Z,101037.13
2023-05-22T13:09:27.046Z,101026.28
2023-05-22T13:11:53.664Z,101030.31
2023-05-22T13:14:20.147Z,101027.78
2023-05-22T13:16:46.771Z,101037.16
2023-05-22T13:19:13.361Z,101044.25
2023-05-22T13:21:39.855Z,101038.38
2023-05-22T13:24:06.414Z,101043.25
2023-05-22T13:26:32.925Z,101040.34
2023-05-22T13:28:59.432Z,101033.75
2023-05-22T13:31:25.927Z,101028.38
2023-05-22T13:33:52.567Z,101024.00
2023-05-22T13:36:19.233Z,101031.91
2023-05-22T13:38:45.823Z,101024.50
2023-05-22T13:41:12.348Z,101036.75
2023-05-22T13:43:38.802Z,101023.44
2023-05-22T13:46:05.568Z,101026.13
2023-05-22T13:48:32.006Z,101016.81
2023-05-22T13:50:58.439Z,101022.53
2023-05-22T13:53:24.951Z,101015.44
2023-05-22T13:55:51.682Z,101008.84
2023-05-22T13:58:18.155Z,101007.69
2023-05-22T14:00:44.598Z,101002.25
2023-05-22T14:03:17.142Z,101003.34
2023-05-22T14:05:44.528Z,100993.44
2023-05-22T14:08:13.335Z,100998.00
2023-05-22T14:10:39.826Z,100994.38
2023-05-22T14:13:06.317Z,100995.97
2023-05-22T14:15:32.780Z,100993.69
2023-05-22T14:17:59.424Z,100987.50
2023-05-22T14:20:25.956Z,100991.78
2023-05-22T14:22:57.663Z,100996.22
2023-05-22T14:25:26.207Z,100988.63
2023-05-22T14:27:52.891Z,100975.94
2023-05-22T14:30:19.373Z,100967.97
2023-05-22T14:32:46.727Z,100961.19
2023-05-22T14:35:13.439Z,100965.59
2023-05-22T14:37:39.908Z,100967.06
2023-05-22T14:40:07.333Z,100958.75
2023-05-22T14:42:33.936Z,100959.09
2023-05-22T14:45:00.661Z,100962.25
2023-05-22T14:47:27.116Z,100950.78
2023-05-22T14:49:57.618Z,100956.47
2023-05-22T14:52:26.501Z,100953.44
2023-05-22T14:54:52.988Z,100937.50
2023-05-22T14:57:19.558Z,100939.31
2023-05-22T14:59:46.045Z,100924.66
2023-05-22T15:02:12.683Z,100932.09
2023-05-22T15:04:39.300Z,100934.09
2023-05-22T15:07:05.905Z,100931.72
2023-05-22T15:09:32.620Z,100932.03
2023-05-22T15:11:59.268Z,100922.81
2023-05-22T15:14:25.766Z,100920.97
2023-05-22T15:16:52.293Z,100927.44
2023-05-22T15:19:18.931Z,100925.47
2023-05-22T15:21:45.659Z,100932.50
2023-05-22T15:24:13.349Z,100918.16
2023-05-22T15:26:39.893Z,100922.78
2023-05-22T15:29:06.367Z,100924.25
2023-05-22T15:31:32.899Z,100917.97
2023-05-22T15:33:59.428Z,100915.66
2023-05-22T15:36:27.388Z,100907.94
2023-05-22T15:38:53.845Z,100910.41
2023-05-22T15:41:21.461Z,100908.69
2023-05-22T15:43:47.954Z,100907.94
2023-05-22T15:46:16.629Z,100905.00
2023-05-22T15:48:44.564Z,100901.09
2023-05-22T15:51:11.961Z,100895.22
2023-05-22T15:53:39.574Z,100891.97
2023-05-22T15:56:06.873Z,100886.81
2023-05-22T15:58:33.489Z,100884.13
2023-05-22T16:00:59.972Z,100878.41
2023-05-22T16:03:26.743Z,100872.91
2023-05-22T16:05:53.341Z,100873.94
2023-05-22T16:08:19.901Z,100875.50
2023-05-22T16:10:47.098Z,100869.09
2023-05-22T16:13:14.100Z,100866.88
2023-05-22T16:15:41.034Z,100872.47
2023-05-22T16:18:08.338Z,100853.94
2023-05-22T16:20:36.016Z,100856.38
2023-05-22T16:23:02.629Z,100858.53
2023-05-22T16:25:29.059Z,100851.56
2023-05-22T16:27:55.616Z,100849.97
2023-05-22T16:30:22.585Z,100845.31
2023-05-22T16:32:49.161Z,100848.44
2023-05-22T16:35:16.566Z,100846.41
2023-05-22T16:37:43.055Z,100848.06
2023-05-22T16:40:10.976Z,100846.34
2023-05-22T16:42:38.217Z,100846.47
2023-05-22T16:45:05.864Z,100835.00
2023-05-22T16:47:32.958Z,100842.16
2023-05-22T16:49:59.952Z,100839.22
2023-05-22T16:52:26.631Z,100841.75
2023-05-22T16:54:53.334Z,100838.13
2023-05-22T16:57:19.876Z,100838.47
2023-05-22T16:59:46.608Z,100833.56
2023-05-22T17:02:13.636Z,100831.66
2023-05-22T17:04:40.914Z,100831.03
2023-05-22T17:07:07.464Z,100824.53
2023-05-22T17:09:34.015Z,100825.09
2023-05-22T17:12:01.109Z,100827.53
2023-05-22T17:14:27.795Z,100829.97
2023-05-22T17:16:55.760Z,100826.94
2023-05-22T17:19:22.913Z,100824.75
2023-05-22T17:21:49.419Z,100820.03
2023-05-22T17:24:16.061Z,100818.09
2023-05-22T17:26:43.389Z,100823.25
2023-05-22T17:29:13.288Z,100818.34
2023-05-22T17:31:39.884Z,100825.94
2023-05-22T17:34:06.797Z,100825.78
2023-05-22T17:36:33.502Z,100822.63
2023-05-22T17:39:00.152Z,100820.97
2023-05-22T17:41:26.980Z,100817.16
2023-05-22T17:43:55.797Z,100817.16
2023-05-22T17:46:22.561Z,100806.03
2023-05-22T17:48:49.070Z,100819.31
2023-05-22T17:51:15.634Z,100809.03
2023-05-22T17:53:42.267Z,100810.88
2023-05-22T17:56:08.885Z,100804.22
2023-05-22T17:58:35.442Z,100807.28
2023-05-22T18:01:02.127Z,100810.59
2023-05-22T18:03:28.757Z,100811.16
2023-05-22T18:05:55.367Z,100806.59
2023-05-22T18:08:21.938Z,100798.38
2023-05-22T18:10:49.024Z,100799.72
2023-05-22T18:13:15.717Z,100805.38
2023-05-22T18:15:42.289Z,100801.84
2023-05-22T18:18:11.380Z,100801.28
2023-05-22T18:20:39.980Z,100792.84
2023-05-22T18:23:06.805Z,100795.13
2023-05-22T18:25:33.454Z,100800.91
2023-05-22T18:28:00.126Z,100799.56
2023-05-22T18:30:26.624Z,100797.03
2023-05-22T18:32:53.255Z,100795.34
2023-05-22T18:35:19.821Z,100792.41
2023-05-22T18:37:46.390Z,100787.06
2023-05-22T18:40:13.129Z,100777.81
2023-05-22T18:42:39.989Z,100775.69
2023-05-22T18:45:07.221Z,100770.78
2023-05-22T18:47:33.724Z,100771.34
2023-05-22T18:50:00.439Z,100777.94
2023-05-22T18:52:26.975Z,100761.75
2023-05-22T18:54:53.495Z,100772.66
2023-05-22T18:57:20.300Z,100774.41
2023-05-22T18:59:47.004Z,100767.38
2023-05-22T19:02:16.396Z,100763.94
2023-05-22T19:04:43.552Z,100760.91
2023-05-22T19:07:10.281Z,100761.00
2023-05-22T19:09:37.161Z,100755.16
2023-05-22T19:12:03.836Z,100761.59
2023-05-22T19:14:30.463Z,100762.03
2023-05-22T19:17:00.106Z,100760.91
2023-05-22T19:19:27.529Z,100756.22
2023-05-22T19:21:54.570Z,100757.09
2023-05-22T19:24:22.349Z,100746.81
2023-05-22T19:26:48.998Z,100749.28
2023-05-22T19:29:15.660Z,100750.50
2023-05-22T19:31:42.424Z,100750.91
2023-05-22T19:34:09.273Z,100749.34
2023-05-22T19:36:36.192Z,100743.06
2023-05-22T19:39:02.792Z,100744.63
2023-05-22T19:41:29.487Z,100733.56
2023-05-22T19:43:55.953Z,100735.56
2023-05-22T19:46:22.486Z,100735.16
2023-05-22T19:48:49.125Z,100737.16
2023-05-22T19:51:15.970Z,100736.75
2023-05-22T19:53:42.572Z,100733.19
2023-05-22T19:56:10.220Z,100742.25
2023-05-22T19:58:37.308Z,100738.31
2023-05-22T20:01:03.946Z,100739.47
2023-05-22T20:03:30.715Z,100741.44
2023-05-22T20:05:57.382Z,100743.41
2023-05-22T20:08:25.433Z,100738.25
2023-05-22T20:10:52.590Z,100742.19
2023-05-22T20:13:19.273Z,100744.19
2023-05-22T20:15:47.610Z,100735.06
2023-05-22T20:18:14.548Z,100748.53
2023-05-22T20:20:41.105Z,100748.94
2023-05-22T20:23:07.918Z,100750.56
2023-05-22T20:25:34.552Z,100750.56
2023-05-22T20:28:01.006Z,100753.28
2023-05-22T20:30:27.452Z,100757.28
2023-05-22T20:32:53.965Z,100759.25
2023-05-22T20:35:22.024Z,100754.50
2023-05-22T20:37:48.708Z,100749.78
2023-05-22T20:40:15.929Z,100747.41
2023-05-22T20:42:42.649Z,100747.81
2023-05-22T20:45:15.104Z,100744.63
2023-05-22T20:47:42.947Z,100742.25
2023-05-22T20:50:09.822Z,100744.66
2023-05-22T20:52:37.282Z,100753.00
2023-05-22T20:55:04.602Z,100748.63
2023-05-22T20:57:31.351Z,100754.97
2023-05-22T20:59:58.368Z,100756.97
2023-05-22T21:02:25.593Z,100757.78
2023-05-22T21:04:52.264Z,100748.66
2023-05-22T21:07:19.522Z,100755.03
2023-05-22T21:09:46.090Z,100749.47
2023-05-22T21:12:12.735Z,100749.47
2023-05-22T21:14:40.198Z,100764.94
2023-05-22T21:17:07.056Z,100766.16
2023-05-22T21:19:33.777Z,100760.19
2023-05-22T21:22:00.267Z,100759.41
2023-05-22T21:24:26.815Z,100758.63
2023-05-22T21:26:53.328Z,100761.00
2023-05-22T21:29:19.777Z,100753.09
2023-05-22T21:31:46.286Z,100761.38
2023-05-22T21:34:12.782Z,100752.66
2023-05-22T21:36:39.226Z,100752.25
2023-05-22T21:39:05.944Z,100758.19
2023-05-22T21:41:32.594Z,100761.38
2023-05-22T21:43:59.383Z,100761.34
2023-05-22T21:46:25.962Z,100759.34
2023-05-22T21:48:53.627Z,100760.50
2023-05-22T21:51:20.335Z,100759.31
2023-05-22T21:53:47.066Z,100770.00
2023-05-22T21:56:13.558Z,100768.03
2023-05-22T21:58:40.001Z,100767.63
2023-05-22T22:01:06.681Z,100768.81
2023-05-22T22:03:33.220Z,100764.06
2023-05-22T22:05:59.792Z,100762.88
2023-05-22T22:08:28.255Z,100757.75
2023-05-22T22:10:55.310Z,100754.97
2023-05-22T22:13:21.837Z,100754.56
2023-05-22T22:15:48.284Z,100755.78
2023-05-22T22:18:15.762Z,100755.78
2023-05-22T22:20:44.745Z,100752.59
2023-05-22T22:23:11.752Z,100758.56
2023-05-22T22:25:39.053Z,100751.03
2023-05-22T22:28:05.997Z,100745.09
2023-05-22T22:30:32.622Z,100741.56
2023-05-22T22:32:59.312Z,100734.41
2023-05-22T22:35:25.921Z,100727.28
2023-05-22T22:37:52.435Z,100723.72
2023-05-22T22:40:18.924Z,100721.75
2023-05-22T22:42:45.390Z,100720.19
2023-05-22T22:45:12.049Z,100722.56
2023-05-22T22:47:39.392Z,100720.19
2023-05-22T22:50:06.436Z,100713.06
2023-05-22T22:52:32.903Z,100712.66
2023-05-22T22:54:59.517Z,100712.66
2023-05-22T22:57:26.125Z,100705.97
2023-05-22T22:59:52.571Z,100705.16
2023-05-22T23:02:19.019Z,100697.25
2023-05-22T23:04:45.539Z,100695.66
2023-05-22T23:07:12.136Z,100690.88
2023-05-22T23:09:40.103Z,100692.88
2023-05-22T23:12:06.928Z,100686.13
2023-05-22T23:14:33.425Z,100687.72
2023-05-22T23:16:59.905Z,100690.09
2023-05-22T23:19:26.818Z,100686.53
2023-05-22T23:21:53.572Z,100678.22
2023-05-22T23:24:20.052Z,100684.56
2023-05-22T23:26:46.569Z,100683.38
2023-05-22T23:29:13.183Z,100683.78
2023-05-22T23:31:40.307Z,100677.44
2023-05-22T23:34:06.887Z,100673.09
2023-05-22T23:36:33.534Z,100674.72
2023-05-22T23:39:00.090Z,100671.13
2023-05-22T23:41:27.422Z,100664.81
2023-05-22T23:43:53.932Z,100662.44
2023-05-22T23:46:21.187Z,100668.75
2023-05-22T23:48:47.819Z,100679.44
2023-05-22T23:51:14.655Z,100676.69
2023-05-22T23:53:41.760Z,100672.75
2023-05-22T23:56:08.951Z,100673.50
2023-05-22T23:58:35.666Z,100676.28
